Accueil
METAR-TAF:

METAR-TAF

Aéroports :

Aéroport international David IV de Koutaïssi

Koutaïssi, Géorgie

latitude: 42-10-35N, longitude: 042-28-57E, altitude: 68 m

Observation

Le bulletin a été fait il y a 34 minutes, à 09:00 UTC
Vent 11 kt de est
Température 10°C
Humidité 46%
Pression 1026 hPa
Visibilité 10 km ou plus
pas de nuages en-dessous de 1500 mètres et pas de cumulonimbus.

METAR: UGKO 270900Z 08011KT CAVOK 10/M01 Q1026 NOSIG

Heure: 13:34 (09:34 UTC)

Prévision

Le bulletin a été fait il y a 4 heures et 34 minutes, à 05:00 UTC
Prévision valable du 27 à 06 UTC au 28 à 06 UTC
Vent 7 kt de est
Visibilité 10 km ou plus
pas de nuages en-dessous de 1500 mètres et pas de cumulonimbus.
Evoluant progressivement
du 27 à 18 UTC au 27 à 20 UTC
Vent 17 kt de est avec des rafales jusqu'à 27 kt
Nuages fragmentés à une hauteur de 4000 ft

TAF: UGKO 270500Z 2706/2806 08007KT CAVOK TX11/2712Z TN04/2802Z BECMG 2718/2720 08017G27KT BKN040

Observations et prévisions météorologiques de plus de 4000 aéroports (messages METAR et TAF).

Les stations disponibles sont représentées par des disques jaunes et rouges sur la carte.

Passer la souris dessus pour voir le nom de la station.

Cliquer dessus pour voir les observations et prévisions météorologiques.

Pour changer de carte: cliquez sur les boutons verts avec une croix noire pour zoomer, sur le bouton vert avec un tiret pour effectuer un zoom arrière, ou sur les flèches vertes pour les cartes adjacentes.


METAR-TAF: